createdAt,value
2023-06-16T00:00:14.987Z,27.19
2023-06-16T00:01:13.969Z,27.19
2023-06-16T00:02:15.046Z,27.18
2023-06-16T00:03:15.022Z,27.18
2023-06-16T00:04:15.116Z,27.18
2023-06-16T00:05:15.064Z,27.19
2023-06-16T00:06:14.104Z,27.18
2023-06-16T00:07:15.118Z,27.18
2023-06-16T00:08:15.188Z,27.18
2023-06-16T00:09:15.180Z,27.18
2023-06-16T00:10:15.243Z,27.17
2023-06-16T00:11:15.257Z,27.17
2023-06-16T00:12:15.285Z,27.17
2023-06-16T00:13:15.314Z,27.17
2023-06-16T00:14:15.344Z,27.17
2023-06-16T00:15:15.360Z,27.16
2023-06-16T00:16:15.414Z,27.16
2023-06-16T00:17:14.431Z,27.16
2023-06-16T00:18:15.461Z,27.16
2023-06-16T00:19:15.488Z,27.15
2023-06-16T00:20:16.054Z,27.16
2023-06-16T00:21:15.702Z,27.15
2023-06-16T00:22:15.572Z,27.15
2023-06-16T00:23:15.598Z,27.14
2023-06-16T00:24:15.733Z,27.14
2023-06-16T00:25:15.662Z,27.14
2023-06-16T00:26:15.681Z,27.14
2023-06-16T00:27:15.717Z,27.13
2023-06-16T00:28:15.752Z,27.13
2023-06-16T00:29:15.793Z,27.14
2023-06-16T00:30:16.110Z,27.13
2023-06-16T00:31:15.839Z,27.13
2023-06-16T00:32:15.871Z,27.13
2023-06-16T00:33:15.928Z,27.13
2023-06-16T00:34:15.935Z,27.12
2023-06-16T00:35:16.036Z,27.12
2023-06-16T00:36:15.023Z,27.12
2023-06-16T00:37:16.059Z,27.12
2023-06-16T00:38:16.082Z,27.11
2023-06-16T00:39:16.109Z,27.12
2023-06-16T00:40:16.367Z,27.11
2023-06-16T00:41:16.185Z,27.11
2023-06-16T00:42:16.214Z,27.11
2023-06-16T00:43:16.242Z,27.10
2023-06-16T00:44:15.273Z,27.10
2023-06-16T00:45:15.326Z,27.10
2023-06-16T00:46:16.366Z,27.10
2023-06-16T00:47:16.464Z,27.10
2023-06-16T00:48:16.426Z,27.10
2023-06-16T00:49:15.461Z,27.09
2023-06-16T00:50:16.694Z,27.09
2023-06-16T00:51:16.561Z,27.08
2023-06-16T00:52:16.576Z,27.09
2023-06-16T00:53:16.622Z,27.09
2023-06-16T00:54:15.659Z,27.08
2023-06-16T00:55:16.683Z,27.08
2023-06-16T00:56:15.744Z,27.08
2023-06-16T00:57:15.782Z,27.08
2023-06-16T00:58:16.802Z,27.08
2023-06-16T00:59:15.836Z,27.08
2023-06-16T01:00:17.233Z,27.07
2023-06-16T01:01:16.925Z,27.07
2023-06-16T01:02:17.016Z,27.07
2023-06-16T01:03:17.067Z,27.06
2023-06-16T01:04:17.046Z,27.06
2023-06-16T01:05:17.066Z,27.07
2023-06-16T01:06:17.109Z,27.06
2023-06-16T01:07:16.156Z,27.05
2023-06-16T01:08:16.221Z,27.05
2023-06-16T01:09:17.230Z,27.05
2023-06-16T01:10:17.497Z,27.06
2023-06-16T01:11:16.292Z,27.05
2023-06-16T01:12:17.367Z,27.05
2023-06-16T01:13:17.395Z,27.04
2023-06-16T01:14:17.425Z,27.04
2023-06-16T01:15:17.462Z,27.04
2023-06-16T01:16:17.527Z,27.04
2023-06-16T01:17:19.855Z,27.04
2023-06-16T01:18:16.551Z,27.04
2023-06-16T01:19:17.539Z,27.04
2023-06-16T01:20:17.844Z,27.04
2023-06-16T01:21:17.526Z,27.03
2023-06-16T01:22:17.513Z,27.02
2023-06-16T01:23:17.525Z,27.02
2023-06-16T01:24:17.523Z,27.03
2023-06-16T01:25:16.508Z,27.02
2023-06-16T01:26:16.490Z,27.02
2023-06-16T01:27:17.479Z,27.03
2023-06-16T01:28:17.500Z,27.02
2023-06-16T01:29:17.473Z,27.02
2023-06-16T01:30:17.768Z,27.00
2023-06-16T01:31:17.439Z,27.01
2023-06-16T01:32:17.441Z,27.01
2023-06-16T01:33:17.483Z,27.01
2023-06-16T01:34:17.525Z,27.01
2023-06-16T01:35:17.579Z,27.00
2023-06-16T01:36:16.600Z,27.00
2023-06-16T01:37:17.643Z,27.00
2023-06-16T01:38:17.688Z,27.00
2023-06-16T01:39:16.719Z,26.99
2023-06-16T01:40:18.132Z,27.00
2023-06-16T01:41:16.804Z,26.99
2023-06-16T01:42:17.853Z,26.99
2023-06-16T01:43:16.924Z,26.99
2023-06-16T01:44:16.963Z,26.98
2023-06-16T01:45:17.995Z,26.98
2023-06-16T01:46:18.139Z,26.97
2023-06-16T01:47:18.217Z,26.98
2023-06-16T01:48:18.157Z,26.97
2023-06-16T01:49:17.197Z,26.97
2023-06-16T01:50:17.434Z,26.97
2023-06-16T01:51:17.267Z,26.97
2023-06-16T01:52:18.332Z,26.96
2023-06-16T01:53:17.480Z,26.97
2023-06-16T01:54:17.422Z,26.96
2023-06-16T01:55:18.460Z,26.95
2023-06-16T01:56:18.519Z,26.95
2023-06-16T01:57:18.559Z,26.95
2023-06-16T01:58:17.626Z,26.95
2023-06-16T01:59:18.713Z,26.95
2023-06-16T02:00:18.178Z,26.94
2023-06-16T02:01:18.780Z,26.94
2023-06-16T02:02:18.809Z,26.94
2023-06-16T02:03:19.161Z,26.94
2023-06-16T02:04:17.918Z,26.94
2023-06-16T02:05:18.972Z,26.94
2023-06-16T02:06:19.029Z,26.94
2023-06-16T02:07:19.072Z,26.94
2023-06-16T02:08:19.136Z,26.94
2023-06-16T02:09:18.196Z,26.93
2023-06-16T02:10:19.500Z,26.93
2023-06-16T02:11:19.279Z,26.93
2023-06-16T02:12:19.326Z,26.92
2023-06-16T02:13:19.383Z,26.93
2023-06-16T02:14:19.426Z,26.93
2023-06-16T02:15:19.475Z,26.92
2023-06-16T02:16:19.645Z,26.92
2023-06-16T02:17:19.586Z,26.92
2023-06-16T02:18:18.638Z,26.92
2023-06-16T02:19:19.716Z,26.92
2023-06-16T02:20:19.185Z,26.91
2023-06-16T02:21:19.802Z,26.91
2023-06-16T02:22:19.834Z,26.91
2023-06-16T02:23:19.894Z,26.91
2023-06-16T02:24:20.036Z,26.91
2023-06-16T02:25:19.022Z,26.90
2023-06-16T02:26:20.034Z,26.90
2023-06-16T02:27:20.094Z,26.91
2023-06-16T02:28:20.150Z,26.90
2023-06-16T02:29:20.197Z,26.89
2023-06-16T02:30:20.561Z,26.89
2023-06-16T02:31:20.334Z,26.89
2023-06-16T02:32:20.370Z,26.89
2023-06-16T02:33:20.474Z,26.89
2023-06-16T02:34:20.452Z,26.88
2023-06-16T02:35:20.524Z,26.88
2023-06-16T02:36:20.570Z,26.87
2023-06-16T02:37:20.601Z,26.88
2023-06-16T02:38:20.701Z,26.88
2023-06-16T02:39:20.710Z,26.87
2023-06-16T02:40:20.944Z,26.88
2023-06-16T02:41:20.817Z,26.87
2023-06-16T02:42:20.871Z,26.87
2023-06-16T02:43:20.915Z,26.87
2023-06-16T02:44:20.980Z,26.86
2023-06-16T02:45:20.040Z,26.87
2023-06-16T02:46:21.088Z,26.85
2023-06-16T02:47:21.190Z,26.86
2023-06-16T02:48:21.202Z,26.86
2023-06-16T02:49:21.238Z,26.85
2023-06-16T02:50:21.447Z,26.86
2023-06-16T02:51:21.339Z,26.86
2023-06-16T02:52:21.367Z,26.85
2023-06-16T02:53:21.444Z,26.85
2023-06-16T02:54:20.494Z,26.85
2023-06-16T02:55:21.547Z,26.85
2023-06-16T02:56:21.579Z,26.85
2023-06-16T02:57:20.630Z,26.85
2023-06-16T02:58:21.685Z,26.85
2023-06-16T02:59:21.717Z,26.84
2023-06-16T03:00:21.957Z,26.84
2023-06-16T03:01:20.900Z,26.83
2023-06-16T03:02:21.964Z,26.83
2023-06-16T03:03:21.984Z,26.83
2023-06-16T03:04:22.005Z,26.83
2023-06-16T03:05:22.042Z,26.83
2023-06-16T03:06:22.083Z,26.83
2023-06-16T03:07:22.140Z,26.82
2023-06-16T03:08:22.189Z,26.83
2023-06-16T03:09:22.246Z,26.82
2023-06-16T03:10:21.675Z,26.82
2023-06-16T03:11:22.389Z,26.82
2023-06-16T03:12:22.393Z,26.81
2023-06-16T03:13:21.442Z,26.81
2023-06-16T03:14:22.491Z,26.81
2023-06-16T03:15:22.545Z,26.81
2023-06-16T03:16:22.809Z,26.81
2023-06-16T03:17:22.726Z,26.81
2023-06-16T03:18:22.709Z,26.81
2023-06-16T03:19:22.779Z,26.80
2023-06-16T03:20:22.828Z,26.81
2023-06-16T03:21:22.864Z,26.80
2023-06-16T03:22:22.914Z,26.81
2023-06-16T03:23:21.984Z,26.81
2023-06-16T03:24:22.039Z,26.79
2023-06-16T03:25:23.077Z,26.80
2023-06-16T03:26:23.126Z,26.79
2023-06-16T03:27:22.175Z,26.79
2023-06-16T03:28:22.234Z,26.79
2023-06-16T03:29:23.285Z,26.79
2023-06-16T03:30:23.333Z,26.79
2023-06-16T03:31:23.384Z,26.79
2023-06-16T03:32:22.436Z,26.79
2023-06-16T03:33:23.484Z,26.78
2023-06-16T03:34:25.252Z,26.77
2023-06-16T03:35:23.527Z,26.77
2023-06-16T03:36:23.529Z,26.78
2023-06-16T03:37:23.511Z,26.78
2023-06-16T03:38:23.603Z,26.77
2023-06-16T03:39:23.494Z,26.77
2023-06-16T03:40:23.499Z,26.77
2023-06-16T03:41:23.469Z,26.77
2023-06-16T03:42:22.458Z,26.77
2023-06-16T03:43:23.458Z,26.76
2023-06-16T03:44:23.465Z,26.76
2023-06-16T03:45:23.483Z,26.76
2023-06-16T03:46:23.531Z,26.76
2023-06-16T03:47:22.456Z,26.75
2023-06-16T03:48:23.430Z,26.75
2023-06-16T03:49:23.414Z,26.76
2023-06-16T03:50:23.425Z,26.75
2023-06-16T03:51:23.401Z,26.75
2023-06-16T03:52:22.424Z,26.75
2023-06-16T03:53:23.386Z,26.75
2023-06-16T03:54:23.385Z,26.75
2023-06-16T03:55:23.369Z,26.74
2023-06-16T03:56:22.363Z,26.75
2023-06-16T03:57:23.370Z,26.74
2023-06-16T03:58:23.356Z,26.74
2023-06-16T03:59:23.358Z,26.74
2023-06-16T04:00:23.355Z,26.74
2023-06-16T04:01:23.427Z,26.74
2023-06-16T04:02:23.402Z,26.74
2023-06-16T04:03:22.531Z,26.73
2023-06-16T04:04:23.512Z,26.74
2023-06-16T04:05:23.573Z,26.73
2023-06-16T04:06:23.615Z,26.73
2023-06-16T04:07:23.660Z,26.73
2023-06-16T04:08:22.744Z,26.73
2023-06-16T04:09:23.772Z,26.72
2023-06-16T04:10:23.843Z,26.72
2023-06-16T04:11:23.901Z,26.72
2023-06-16T04:12:22.934Z,26.73
2023-06-16T04:13:23.986Z,26.72
2023-06-16T04:14:24.614Z,26.72
2023-06-16T04:15:24.094Z,26.72
2023-06-16T04:16:23.157Z,26.72
2023-06-16T04:17:23.180Z,26.72
2023-06-16T04:18:24.242Z,26.71
2023-06-16T04:19:24.302Z,26.72
2023-06-16T04:20:23.352Z,26.71
2023-06-16T04:21:24.405Z,26.72
2023-06-16T04:22:24.456Z,26.71
2023-06-16T04:23:24.509Z,26.71
2023-06-16T04:24:23.585Z,26.70
2023-06-16T04:25:24.614Z,26.70
2023-06-16T04:26:24.676Z,26.71
2023-06-16T04:27:24.714Z,26.71
2023-06-16T04:28:24.770Z,26.71
2023-06-16T04:29:24.801Z,26.71
2023-06-16T04:30:24.858Z,26.70
2023-06-16T04:31:24.913Z,26.70
2023-06-16T04:32:24.971Z,26.70
2023-06-16T04:33:25.018Z,26.70
2023-06-16T04:34:25.073Z,26.69
2023-06-16T04:35:25.117Z,26.70
2023-06-16T04:36:24.173Z,26.70
2023-06-16T04:37:25.222Z,26.70
2023-06-16T04:38:25.263Z,26.70
2023-06-16T04:39:25.314Z,26.69
2023-06-16T04:40:25.406Z,26.69
2023-06-16T04:41:25.419Z,26.70
2023-06-16T04:42:25.495Z,26.69
2023-06-16T04:43:25.525Z,26.69
2023-06-16T04:44:25.594Z,26.69
2023-06-16T04:45:25.661Z,26.69
2023-06-16T04:46:24.831Z,26.68
2023-06-16T04:47:25.827Z,26.69
2023-06-16T04:48:25.810Z,26.69
2023-06-16T04:49:25.845Z,26.68
2023-06-16T04:50:25.894Z,26.68
2023-06-16T04:51:25.938Z,26.68
2023-06-16T04:52:26.004Z,26.68
2023-06-16T04:53:25.056Z,26.68
2023-06-16T04:54:26.100Z,26.68
2023-06-16T04:55:26.156Z,26.68
2023-06-16T04:56:26.237Z,26.68
2023-06-16T04:57:26.274Z,26.68
2023-06-16T04:58:26.330Z,26.68
2023-06-16T04:59:26.406Z,26.67
2023-06-16T05:00:25.430Z,26.67
2023-06-16T05:01:26.485Z,26.67
2023-06-16T05:02:26.623Z,26.68
2023-06-16T05:03:26.691Z,26.69
2023-06-16T05:04:25.664Z,26.68
2023-06-16T05:05:26.709Z,26.68
2023-06-16T05:06:26.755Z,26.68
2023-06-16T05:07:26.790Z,26.69
2023-06-16T05:08:25.849Z,26.69
2023-06-16T05:09:26.964Z,26.70
2023-06-16T05:10:26.947Z,26.70
2023-06-16T05:11:27.895Z,26.71
2023-06-16T05:12:27.089Z,26.72
2023-06-16T05:13:26.997Z,26.71
2023-06-16T05:14:26.970Z,26.72
2023-06-16T05:15:26.968Z,26.73
2023-06-16T05:16:26.956Z,26.74
2023-06-16T05:17:27.003Z,26.74
2023-06-16T05:18:27.054Z,26.74
2023-06-16T05:19:26.973Z,26.74
2023-06-16T05:20:26.939Z,26.74
2023-06-16T05:21:26.980Z,26.74
2023-06-16T05:22:26.908Z,26.74
2023-06-16T05:23:26.941Z,26.74
2023-06-16T05:24:26.949Z,26.74
2023-06-16T05:25:26.914Z,26.75
2023-06-16T05:26:26.932Z,26.77
2023-06-16T05:27:26.903Z,26.77
2023-06-16T05:28:26.904Z,26.78
2023-06-16T05:29:26.866Z,26.79
2023-06-16T05:30:26.857Z,26.80
2023-06-16T05:31:25.900Z,26.80
2023-06-16T05:32:26.854Z,26.80
2023-06-16T05:33:25.860Z,26.79
2023-06-16T05:34:26.828Z,26.79
2023-06-16T05:35:26.821Z,26.79
2023-06-16T05:36:26.858Z,26.80
2023-06-16T05:37:26.899Z,26.81
2023-06-16T05:38:26.996Z,26.81
2023-06-16T05:39:27.026Z,26.82
2023-06-16T05:40:27.079Z,26.83
2023-06-16T05:41:27.113Z,26.84
2023-06-16T05:42:27.170Z,26.85
2023-06-16T05:43:27.241Z,26.86
2023-06-16T05:44:27.277Z,26.88
2023-06-16T05:45:26.298Z,26.89
2023-06-16T05:46:27.358Z,26.91
2023-06-16T05:47:27.419Z,26.92
2023-06-16T05:48:26.455Z,26.94
2023-06-16T05:49:27.509Z,26.96
2023-06-16T05:50:27.532Z,26.97
2023-06-16T05:51:26.566Z,26.99
2023-06-16T05:52:27.597Z,26.86
2023-06-16T05:53:27.685Z,26.79
2023-06-16T05:54:27.722Z,26.76
2023-06-16T05:55:27.760Z,26.76
2023-06-16T05:56:27.817Z,26.77
2023-06-16T05:57:27.760Z,26.79
2023-06-16T05:58:27.871Z,26.81
2023-06-16T05:59:26.856Z,26.83
2023-06-16T06:00:26.974Z,26.85
2023-06-16T06:01:27.966Z,26.86
2023-06-16T06:02:29.029Z,26.89
2023-06-16T06:03:28.628Z,26.90
2023-06-16T06:04:27.213Z,26.92
2023-06-16T06:05:28.210Z,26.94
2023-06-16T06:06:28.213Z,26.96
2023-06-16T06:07:27.286Z,26.96
2023-06-16T06:08:28.311Z,26.98
2023-06-16T06:09:28.341Z,26.99
2023-06-16T06:10:28.529Z,27.01
2023-06-16T06:11:28.425Z,27.01
2023-06-16T06:12:28.453Z,27.03
2023-06-16T06:13:27.514Z,27.04
2023-06-16T06:14:28.530Z,27.04
2023-06-16T06:15:27.555Z,27.05
2023-06-16T06:16:28.771Z,27.06
2023-06-16T06:17:28.673Z,27.07
2023-06-16T06:18:28.662Z,27.05
2023-06-16T06:19:28.711Z,27.05
2023-06-16T06:20:27.714Z,27.05
2023-06-16T06:21:28.770Z,27.07
2023-06-16T06:22:27.794Z,27.06
2023-06-16T06:23:28.833Z,27.05
2023-06-16T06:24:28.870Z,27.05
2023-06-16T06:25:28.888Z,27.05
2023-06-16T06:26:28.932Z,27.05
2023-06-16T06:27:28.967Z,27.04
2023-06-16T06:28:28.038Z,27.03
2023-06-16T06:29:28.046Z,27.04
2023-06-16T06:30:29.060Z,27.04
2023-06-16T06:31:28.082Z,27.04
2023-06-16T06:32:29.190Z,27.06
2023-06-16T06:33:29.144Z,27.06
2023-06-16T06:34:28.206Z,27.05
2023-06-16T06:35:29.218Z,27.05
2023-06-16T06:36:29.248Z,27.04
2023-06-16T06:37:29.264Z,27.05
2023-06-16T06:38:28.327Z,27.04
2023-06-16T06:39:28.398Z,27.04
2023-06-16T06:40:29.392Z,27.06
2023-06-16T06:41:29.404Z,27.06
2023-06-16T06:42:29.439Z,27.07
2023-06-16T06:43:29.475Z,27.07
2023-06-16T06:44:28.551Z,27.06
2023-06-16T06:45:29.603Z,27.06
2023-06-16T06:46:29.596Z,27.06
2023-06-16T06:47:28.642Z,27.06
2023-06-16T06:48:29.670Z,27.06
2023-06-16T06:49:29.685Z,27.06
2023-06-16T06:50:28.832Z,27.06
2023-06-16T06:51:29.735Z,27.06
2023-06-16T06:52:28.792Z,27.05
2023-06-16T06:53:29.815Z,27.06
2023-06-16T06:54:29.967Z,27.05
2023-06-16T06:55:29.955Z,27.04
2023-06-16T06:56:29.903Z,27.05
2023-06-16T06:57:29.962Z,27.05
2023-06-16T06:58:28.996Z,27.06
2023-06-16T06:59:29.398Z,27.06
2023-06-16T07:00:30.891Z,27.08
2023-06-16T07:01:30.081Z,27.11
2023-06-16T07:02:30.434Z,27.14
2023-06-16T07:03:30.204Z,27.17
2023-06-16T07:04:30.181Z,27.18
2023-06-16T07:05:29.159Z,27.21
2023-06-16T07:06:30.160Z,27.23
2023-06-16T07:07:29.176Z,27.24
2023-06-16T07:08:30.179Z,27.27
2023-06-16T07:09:31.068Z,27.29
2023-06-16T07:10:30.182Z,27.32
2023-06-16T07:11:30.198Z,27.34
2023-06-16T07:12:30.195Z,27.36
2023-06-16T07:13:30.214Z,27.38
2023-06-16T07:14:30.212Z,27.39
2023-06-16T07:15:30.205Z,27.40
2023-06-16T07:16:29.290Z,27.42
2023-06-16T07:17:30.240Z,27.44
2023-06-16T07:18:30.198Z,27.45
2023-06-16T07:19:30.239Z,27.47
2023-06-16T07:20:29.207Z,27.49
2023-06-16T07:21:29.207Z,27.50
2023-06-16T07:22:30.236Z,27.51
2023-06-16T07:23:29.261Z,27.51
2023-06-16T07:24:30.332Z,27.53
2023-06-16T07:25:30.274Z,27.54
2023-06-16T07:26:30.296Z,27.55
2023-06-16T07:27:30.337Z,27.55
2023-06-16T07:28:29.408Z,27.56
2023-06-16T07:29:30.419Z,27.57
2023-06-16T07:30:29.443Z,27.57
2023-06-16T07:31:30.471Z,27.58
2023-06-16T07:32:30.541Z,27.59
2023-06-16T07:33:30.557Z,27.60
2023-06-16T07:34:29.618Z,27.60
2023-06-16T07:35:30.659Z,27.61
2023-06-16T07:36:30.752Z,27.62
2023-06-16T07:37:30.770Z,27.62
2023-06-16T07:38:29.838Z,27.64
2023-06-16T07:39:30.874Z,27.65
2023-06-16T07:40:30.919Z,27.67
2023-06-16T07:41:30.982Z,27.68
2023-06-16T07:42:30.039Z,27.69
2023-06-16T07:43:31.103Z,27.70
2023-06-16T07:44:30.169Z,27.71
2023-06-16T07:45:31.231Z,27.72
2023-06-16T07:46:31.387Z,27.71
2023-06-16T07:47:31.407Z,27.67
2023-06-16T07:48:31.274Z,27.58
2023-06-16T07:49:31.458Z,27.51
2023-06-16T07:50:31.320Z,27.47
2023-06-16T07:51:31.356Z,27.43
2023-06-16T07:52:31.395Z,27.43
2023-06-16T07:53:31.393Z,27.46
2023-06-16T07:54:31.514Z,27.48
2023-06-16T07:55:30.454Z,27.51
2023-06-16T07:56:30.385Z,27.54
2023-06-16T07:57:31.690Z,27.58
2023-06-16T07:58:30.420Z,27.62
2023-06-16T07:59:31.466Z,27.66
2023-06-16T08:00:31.483Z,27.69
2023-06-16T08:01:31.624Z,27.73
2023-06-16T08:02:31.634Z,27.76
2023-06-16T08:03:31.802Z,27.79
2023-06-16T08:04:31.048Z,27.83
2023-06-16T08:05:31.817Z,27.87
2023-06-16T08:06:31.832Z,27.91
2023-06-16T08:07:31.846Z,27.94
2023-06-16T08:08:30.907Z,27.98
2023-06-16T08:09:30.948Z,28.02
2023-06-16T08:10:31.982Z,28.02
2023-06-16T08:11:31.998Z,28.06
2023-06-16T08:12:32.046Z,28.09
2023-06-16T08:13:32.115Z,28.12
2023-06-16T08:14:32.089Z,28.14
2023-06-16T08:15:32.129Z,28.15
2023-06-16T08:16:32.278Z,28.17
2023-06-16T08:17:32.214Z,28.20
2023-06-16T08:18:31.185Z,28.22
2023-06-16T08:19:32.216Z,28.23
2023-06-16T08:20:32.293Z,28.25
2023-06-16T08:21:32.268Z,28.27
2023-06-16T08:22:32.267Z,28.28
2023-06-16T08:23:32.289Z,28.31
2023-06-16T08:24:31.373Z,28.32
2023-06-16T08:25:32.425Z,28.33
2023-06-16T08:26:31.354Z,28.34
2023-06-16T08:27:31.363Z,28.35
2023-06-16T08:28:32.537Z,28.36
2023-06-16T08:29:32.375Z,28.38
2023-06-16T08:30:32.390Z,28.39
2023-06-16T08:31:32.524Z,28.40
2023-06-16T08:32:32.504Z,28.42
2023-06-16T08:33:31.440Z,28.43
2023-06-16T08:34:31.522Z,28.44
2023-06-16T08:35:32.467Z,28.46
2023-06-16T08:36:32.530Z,28.47
2023-06-16T08:37:32.518Z,28.50
2023-06-16T08:38:32.487Z,28.50
2023-06-16T08:39:31.518Z,28.52
2023-06-16T08:40:31.585Z,28.53
2023-06-16T08:41:32.566Z,28.54
2023-06-16T08:42:32.551Z,28.56
2023-06-16T08:43:32.569Z,28.57
2023-06-16T08:44:32.554Z,28.58
2023-06-16T08:45:32.566Z,28.58
2023-06-16T08:46:32.596Z,28.57
2023-06-16T08:47:32.663Z,28.57
2023-06-16T08:48:32.539Z,28.58
2023-06-16T08:49:32.541Z,28.54
2023-06-16T08:50:32.569Z,28.54
2023-06-16T08:51:32.560Z,28.54
2023-06-16T08:52:43.357Z,28.53
2023-06-16T08:53:32.594Z,28.53
2023-06-16T08:54:32.636Z,28.52
2023-06-16T08:55:31.579Z,28.48
2023-06-16T08:56:32.590Z,28.45
2023-06-16T08:57:32.551Z,28.44
2023-06-16T08:58:32.541Z,28.46
2023-06-16T08:59:32.545Z,28.47
2023-06-16T09:00:32.536Z,28.47
2023-06-16T09:01:32.536Z,28.48
2023-06-16T09:02:31.548Z,28.49
2023-06-16T09:03:32.607Z,28.50
2023-06-16T09:04:31.487Z,28.51
2023-06-16T09:05:32.502Z,28.51
2023-06-16T09:06:32.493Z,28.54
2023-06-16T09:07:32.472Z,28.55
2023-06-16T09:08:32.523Z,28.57
2023-06-16T09:09:32.466Z,28.58
2023-06-16T09:10:31.477Z,28.59
2023-06-16T09:11:31.448Z,28.60
2023-06-16T09:12:32.477Z,28.63
2023-06-16T09:13:31.434Z,28.65
2023-06-16T09:14:32.423Z,28.66
2023-06-16T09:15:32.422Z,28.67
2023-06-16T09:16:31.438Z,28.69
2023-06-16T09:17:32.424Z,28.71
2023-06-16T09:18:32.398Z,28.72
2023-06-16T09:19:31.379Z,28.72
2023-06-16T09:20:32.397Z,28.73
2023-06-16T09:21:36.748Z,28.74
2023-06-16T09:22:32.396Z,28.76
2023-06-16T09:23:31.392Z,28.77
2023-06-16T09:24:34.484Z,28.78
2023-06-16T09:25:31.405Z,28.79
2023-06-16T09:26:32.415Z,28.79
2023-06-16T09:27:32.371Z,28.80
2023-06-16T09:28:32.380Z,28.81
2023-06-16T09:29:32.353Z,28.82
2023-06-16T09:30:32.370Z,28.83
2023-06-16T09:31:32.353Z,28.83
2023-06-16T09:32:31.372Z,28.84
2023-06-16T09:33:32.340Z,28.84
2023-06-16T09:34:32.324Z,28.84
2023-06-16T09:35:32.316Z,28.84
2023-06-16T09:36:31.307Z,28.86
2023-06-16T09:37:32.316Z,28.88
2023-06-16T09:38:32.307Z,28.90
2023-06-16T09:39:32.315Z,28.91
2023-06-16T09:40:32.320Z,28.93
2023-06-16T09:41:32.290Z,28.95
2023-06-16T09:42:32.323Z,28.96
2023-06-16T09:43:32.420Z,28.98
2023-06-16T09:44:32.477Z,29.01
2023-06-16T09:45:33.141Z,29.03
2023-06-16T09:46:31.659Z,29.03
2023-06-16T09:47:31.643Z,29.03
2023-06-16T09:48:32.707Z,29.04
2023-06-16T09:49:32.722Z,29.04
2023-06-16T09:50:33.008Z,28.83
2023-06-16T09:51:32.805Z,28.58
2023-06-16T09:52:31.833Z,28.35
2023-06-16T09:53:32.828Z,28.09
2023-06-16T09:54:31.876Z,27.95
2023-06-16T09:55:32.906Z,27.85
2023-06-16T09:56:32.912Z,27.78
2023-06-16T09:57:32.933Z,27.73
2023-06-16T09:58:41.692Z,27.69
2023-06-16T09:59:32.974Z,27.66
2023-06-16T10:00:33.003Z,27.62
2023-06-16T10:01:33.096Z,27.60
2023-06-16T10:02:32.001Z,27.58
2023-06-16T10:03:33.015Z,27.58
2023-06-16T10:04:32.994Z,27.59
2023-06-16T10:05:32.935Z,27.60
2023-06-16T10:06:32.938Z,27.61
2023-06-16T10:07:33.022Z,27.61
2023-06-16T10:08:33.007Z,27.59
2023-06-16T10:09:32.962Z,27.59
2023-06-16T10:10:32.930Z,27.61
2023-06-16T10:11:32.919Z,27.62
2023-06-16T10:12:31.925Z,27.65
2023-06-16T10:13:32.894Z,27.68
2023-06-16T10:14:32.887Z,27.68
2023-06-16T10:15:32.915Z,27.69
2023-06-16T10:16:32.971Z,27.71
2023-06-16T10:17:33.082Z,27.72
2023-06-16T10:18:33.025Z,27.73
2023-06-16T10:19:31.857Z,27.75
2023-06-16T10:20:32.874Z,27.77
2023-06-16T10:21:32.834Z,27.80
2023-06-16T10:22:32.837Z,27.82
2023-06-16T10:23:31.931Z,27.85
2023-06-16T10:24:32.966Z,27.86
2023-06-16T10:25:32.977Z,27.89
2023-06-16T10:26:33.037Z,27.90
2023-06-16T10:27:32.098Z,27.93
2023-06-16T10:28:33.153Z,27.96
2023-06-16T10:29:33.209Z,27.98
2023-06-16T10:30:33.261Z,28.00
2023-06-16T10:31:33.294Z,28.01
2023-06-16T10:32:32.422Z,28.03
2023-06-16T10:33:32.411Z,28.04
2023-06-16T10:34:33.485Z,28.04
2023-06-16T10:35:32.510Z,28.05
2023-06-16T10:36:33.588Z,28.06
2023-06-16T10:37:33.591Z,28.08
2023-06-16T10:38:33.645Z,28.10
2023-06-16T10:39:33.681Z,28.12
2023-06-16T10:40:33.721Z,28.13
2023-06-16T10:41:32.819Z,28.14
2023-06-16T10:42:33.859Z,28.14
2023-06-16T10:43:33.855Z,28.14
2023-06-16T10:44:33.892Z,28.14
2023-06-16T10:45:33.956Z,28.13
2023-06-16T10:46:34.012Z,28.14
2023-06-16T10:47:33.085Z,28.14
2023-06-16T10:48:33.118Z,28.12
2023-06-16T10:49:33.084Z,28.12
2023-06-16T10:50:34.127Z,28.11
2023-06-16T10:51:34.173Z,28.11
2023-06-16T10:52:34.210Z,28.11
2023-06-16T10:53:34.249Z,28.10
2023-06-16T10:54:34.292Z,28.12
2023-06-16T10:55:34.337Z,28.12
2023-06-16T10:56:34.370Z,28.13
2023-06-16T10:57:34.406Z,28.12
2023-06-16T10:58:34.472Z,28.12
2023-06-16T10:59:34.501Z,28.11
2023-06-16T11:00:35.022Z,28.09
2023-06-16T11:01:34.660Z,28.07
2023-06-16T11:02:34.767Z,28.04
2023-06-16T11:03:34.735Z,28.03
2023-06-16T11:04:34.784Z,28.01
2023-06-16T11:05:34.782Z,27.99
2023-06-16T11:06:34.846Z,27.98
2023-06-16T11:07:35.426Z,27.95
2023-06-16T11:08:33.947Z,27.93
2023-06-16T11:09:35.031Z,27.91
2023-06-16T11:10:35.076Z,27.90
2023-06-16T11:11:35.143Z,27.87
2023-06-16T11:12:35.189Z,27.86
2023-06-16T11:13:35.218Z,27.84
2023-06-16T11:14:35.252Z,27.83
2023-06-16T11:15:35.327Z,27.82
2023-06-16T11:16:35.452Z,27.82
2023-06-16T11:17:35.395Z,27.81
2023-06-16T11:18:35.373Z,27.78
2023-06-16T11:19:34.307Z,27.75
2023-06-16T11:20:35.378Z,27.76
2023-06-16T11:21:34.304Z,27.76
2023-06-16T11:22:35.340Z,27.77
2023-06-16T11:23:35.333Z,27.76
2023-06-16T11:24:34.447Z,27.75
2023-06-16T11:25:35.386Z,27.75
2023-06-16T11:26:35.395Z,27.76
2023-06-16T11:27:35.398Z,27.78
2023-06-16T11:28:35.424Z,27.78
2023-06-16T11:29:35.484Z,27.78
2023-06-16T11:30:35.539Z,27.77
2023-06-16T11:31:35.542Z,27.75
2023-06-16T11:32:35.566Z,27.74
2023-06-16T11:33:35.544Z,27.70
2023-06-16T11:34:37.530Z,27.68
2023-06-16T11:35:35.525Z,27.67
2023-06-16T11:36:34.534Z,27.64
2023-06-16T11:37:35.467Z,27.63
2023-06-16T11:38:35.486Z,27.61
2023-06-16T11:39:35.466Z,27.60
2023-06-16T11:40:35.536Z,27.58
2023-06-16T11:41:35.525Z,27.57
2023-06-16T11:42:35.502Z,27.56
2023-06-16T11:43:35.442Z,27.55
2023-06-16T11:44:35.431Z,27.52
2023-06-16T11:45:35.453Z,27.51
2023-06-16T11:46:35.486Z,27.49
2023-06-16T11:47:35.450Z,27.48
2023-06-16T11:48:35.411Z,27.46
2023-06-16T11:49:35.424Z,27.44
2023-06-16T11:50:35.438Z,27.43
2023-06-16T11:51:35.401Z,27.40
2023-06-16T11:52:35.398Z,27.39
2023-06-16T11:53:35.386Z,27.37
2023-06-16T11:54:35.372Z,27.33
2023-06-16T11:55:35.368Z,27.31
2023-06-16T11:56:35.359Z,27.28
2023-06-16T11:57:34.347Z,27.26
2023-06-16T11:58:34.356Z,27.22
2023-06-16T11:59:34.342Z,27.19
2023-06-16T12:00:34.390Z,27.16
2023-06-16T12:01:35.391Z,27.13
2023-06-16T12:02:35.319Z,27.12
2023-06-16T12:03:35.342Z,27.08
2023-06-16T12:04:35.524Z,27.03
2023-06-16T12:05:35.288Z,26.98
2023-06-16T12:06:34.304Z,26.91
2023-06-16T12:07:34.282Z,26.85
2023-06-16T12:08:35.299Z,26.79
2023-06-16T12:09:35.277Z,26.75
2023-06-16T12:10:35.266Z,26.69
2023-06-16T12:11:35.367Z,26.64
2023-06-16T12:12:36.038Z,26.61
2023-06-16T12:13:35.262Z,26.55
2023-06-16T12:14:35.230Z,26.47
2023-06-16T12:15:35.239Z,26.42
2023-06-16T12:16:34.218Z,26.38
2023-06-16T12:17:35.412Z,26.32
2023-06-16T12:18:35.276Z,26.26
2023-06-16T12:19:35.297Z,26.20
2023-06-16T12:20:34.304Z,26.15
2023-06-16T12:21:35.340Z,26.12
2023-06-16T12:22:34.387Z,26.11
2023-06-16T12:23:35.424Z,26.09
2023-06-16T12:24:35.520Z,26.06
2023-06-16T12:25:35.478Z,26.05
2023-06-16T12:26:35.543Z,25.99
2023-06-16T12:27:34.612Z,25.96
2023-06-16T12:28:35.581Z,25.92
2023-06-16T12:29:35.620Z,25.87
2023-06-16T12:30:35.680Z,25.76
2023-06-16T12:31:35.648Z,25.61
2023-06-16T12:32:35.662Z,25.50
2023-06-16T12:33:35.714Z,25.45
2023-06-16T12:34:35.761Z,25.45
2023-06-16T12:35:35.759Z,25.48
2023-06-16T12:36:35.803Z,25.50
2023-06-16T12:37:35.833Z,25.53
2023-06-16T12:38:35.907Z,25.57
2023-06-16T12:39:34.942Z,25.60
2023-06-16T12:40:35.970Z,25.65
2023-06-16T12:41:35.965Z,25.73
2023-06-16T12:42:35.992Z,25.79
2023-06-16T12:43:36.040Z,25.88
2023-06-16T12:44:35.082Z,25.95
2023-06-16T12:45:36.103Z,26.01
2023-06-16T12:46:36.164Z,26.08
2023-06-16T12:47:36.230Z,26.14
2023-06-16T12:48:36.155Z,26.20
2023-06-16T12:49:36.163Z,26.26
2023-06-16T12:50:36.176Z,26.32
2023-06-16T12:51:35.221Z,26.37
2023-06-16T12:52:36.262Z,26.41